sensor_id;sensor_type;location;lat;lon;timestamp;P1;durP1;ratioP1;P2;durP2;ratioP2
67049;SDS011;53955;52.442;13.284;2023-09-07T00:01:52;7.53;;;4.90;;
67049;SDS011;53955;52.442;13.284;2023-09-07T00:04:20;8.57;;;5.25;;
67049;SDS011;53955;52.442;13.284;2023-09-07T00:06:47;7.50;;;5.05;;
67049;SDS011;53955;52.442;13.284;2023-09-07T00:09:14;6.97;;;5.10;;
67049;SDS011;53955;52.442;13.284;2023-09-07T00:11:43;7.72;;;5.05;;
67049;SDS011;53955;52.442;13.284;2023-09-07T00:14:09;7.03;;;5.00;;
67049;SDS011;53955;52.442;13.284;2023-09-07T00:16:36;9.20;;;6.05;;
67049;SDS011;53955;52.442;13.284;2023-09-07T00:19:03;5.97;;;4.72;;
67049;SDS011;53955;52.442;13.284;2023-09-07T00:21:31;6.70;;;4.90;;
67049;SDS011;53955;52.442;13.284;2023-09-07T00:23:57;6.45;;;4.80;;
67049;SDS011;53955;52.442;13.284;2023-09-07T00:26:29;8.25;;;5.70;;
67049;SDS011;53955;52.442;13.284;2023-09-07T00:28:55;7.13;;;4.80;;
67049;SDS011;53955;52.442;13.284;2023-09-07T00:31:22;6.90;;;4.97;;
67049;SDS011;53955;52.442;13.284;2023-09-07T00:33:48;6.55;;;5.05;;
67049;SDS011;53955;52.442;13.284;2023-09-07T00:36:15;6.75;;;5.03;;
67049;SDS011;53955;52.442;13.284;2023-09-07T00:38:44;7.22;;;5.00;;
67049;SDS011;53955;52.442;13.284;2023-09-07T00:43:39;6.77;;;4.80;;
67049;SDS011;53955;52.442;13.284;2023-09-07T00:46:06;7.22;;;5.22;;
67049;SDS011;53955;52.442;13.284;2023-09-07T00:48:32;7.97;;;5.30;;
67049;SDS011;53955;52.442;13.284;2023-09-07T00:50:59;7.13;;;5.05;;
67049;SDS011;53955;52.442;13.284;2023-09-07T00:53:26;8.05;;;5.43;;
67049;SDS011;53955;52.442;13.284;2023-09-07T00:55:54;7.38;;;5.43;;
67049;SDS011;53955;52.442;13.284;2023-09-07T01:10:41;6.65;;;5.07;;
67049;SDS011;53955;52.442;13.284;2023-09-07T01:13:08;7.07;;;5.13;;
67049;SDS011;53955;52.442;13.284;2023-09-07T01:15:35;8.82;;;5.68;;
67049;SDS011;53955;52.442;13.284;2023-09-07T01:18:03;7.68;;;5.38;;
67049;SDS011;53955;52.442;13.284;2023-09-07T01:20:30;7.70;;;5.20;;
67049;SDS011;53955;52.442;13.284;2023-09-07T01:23:00;7.55;;;5.07;;
67049;SDS011;53955;52.442;13.284;2023-09-07T01:25:29;7.05;;;4.97;;
67049;SDS011;53955;52.442;13.284;2023-09-07T01:27:57;7.10;;;5.22;;
67049;SDS011;53955;52.442;13.284;2023-09-07T01:30:25;7.57;;;5.18;;
67049;SDS011;53955;52.442;13.284;2023-09-07T01:32:53;7.70;;;4.88;;
67049;SDS011;53955;52.442;13.284;2023-09-07T01:35:20;8.77;;;5.18;;
67049;SDS011;53955;52.442;13.284;2023-09-07T01:37:47;6.70;;;4.95;;
67049;SDS011;53955;52.442;13.284;2023-09-07T01:40:15;6.85;;;5.20;;
67049;SDS011;53955;52.442;13.284;2023-09-07T01:42:42;7.82;;;5.43;;
67049;SDS011;53955;52.442;13.284;2023-09-07T01:45:09;8.07;;;5.43;;
67049;SDS011;53955;52.442;13.284;2023-09-07T01:47:35;8.18;;;5.35;;
67049;SDS011;53955;52.442;13.284;2023-09-07T01:50:08;10.07;;;5.70;;
67049;SDS011;53955;52.442;13.284;2023-09-07T01:52:35;8.00;;;4.93;;
67049;SDS011;53955;52.442;13.284;2023-09-07T01:55:01;8.02;;;5.20;;
67049;SDS011;53955;52.442;13.284;2023-09-07T02:17:04;9.05;;;5.85;;
67049;SDS011;53955;52.442;13.284;2023-09-07T02:21:57;7.63;;;5.32;;
67049;SDS011;53955;52.442;13.284;2023-09-07T02:24:24;6.65;;;5.05;;
67049;SDS011;53955;52.442;13.284;2023-09-07T02:26:50;7.75;;;5.20;;
67049;SDS011;53955;52.442;13.284;2023-09-07T02:29:17;8.95;;;5.50;;
67049;SDS011;53955;52.442;13.284;2023-09-07T02:31:45;7.43;;;4.85;;
67049;SDS011;53955;52.442;13.284;2023-09-07T02:34:11;10.57;;;5.80;;
67049;SDS011;53955;52.442;13.284;2023-09-07T02:36:38;9.75;;;5.13;;
67049;SDS011;53955;52.442;13.284;2023-09-07T02:39:04;6.13;;;4.88;;
67049;SDS011;53955;52.442;13.284;2023-09-07T02:41:33;7.65;;;5.40;;
67049;SDS011;53955;52.442;13.284;2023-09-07T02:44:00;8.93;;;5.75;;
67049;SDS011;53955;52.442;13.284;2023-09-07T02:46:26;8.23;;;5.20;;
67049;SDS011;53955;52.442;13.284;2023-09-07T02:48:54;8.25;;;5.13;;
67049;SDS011;53955;52.442;13.284;2023-09-07T02:51:22;7.72;;;5.10;;
67049;SDS011;53955;52.442;13.284;2023-09-07T02:53:49;9.10;;;5.50;;
67049;SDS011;53955;52.442;13.284;2023-09-07T02:56:15;9.20;;;5.20;;
67049;SDS011;53955;52.442;13.284;2023-09-07T02:58:42;9.10;;;5.03;;
67049;SDS011;53955;52.442;13.284;2023-09-07T03:01:10;9.07;;;5.15;;
67049;SDS011;53955;52.442;13.284;2023-09-07T03:03:38;7.82;;;4.85;;
67049;SDS011;53955;52.442;13.284;2023-09-07T03:06:10;8.63;;;5.50;;
67049;SDS011;53955;52.442;13.284;2023-09-07T03:08:37;12.32;;;5.28;;
67049;SDS011;53955;52.442;13.284;2023-09-07T03:11:05;9.05;;;5.35;;
67049;SDS011;53955;52.442;13.284;2023-09-07T03:13:32;7.72;;;5.60;;
67049;SDS011;53955;52.442;13.284;2023-09-07T03:15:58;8.05;;;4.95;;
67049;SDS011;53955;52.442;13.284;2023-09-07T03:18:25;7.32;;;5.18;;
67049;SDS011;53955;52.442;13.284;2023-09-07T03:20:53;8.07;;;5.20;;
67049;SDS011;53955;52.442;13.284;2023-09-07T03:23:22;11.48;;;6.22;;
67049;SDS011;53955;52.442;13.284;2023-09-07T03:25:49;7.47;;;5.18;;
67049;SDS011;53955;52.442;13.284;2023-09-07T03:28:15;6.88;;;5.40;;
67049;SDS011;53955;52.442;13.284;2023-09-07T03:30:42;8.43;;;5.55;;
67049;SDS011;53955;52.442;13.284;2023-09-07T03:33:09;8.27;;;5.20;;
67049;SDS011;53955;52.442;13.284;2023-09-07T03:35:35;6.60;;;4.70;;
67049;SDS011;53955;52.442;13.284;2023-09-07T03:38:02;6.88;;;5.13;;
67049;SDS011;53955;52.442;13.284;2023-09-07T03:40:30;7.45;;;5.40;;
67049;SDS011;53955;52.442;13.284;2023-09-07T03:42:57;6.93;;;5.00;;
67049;SDS011;53955;52.442;13.284;2023-09-07T03:45:23;7.80;;;5.38;;
67049;SDS011;53955;52.442;13.284;2023-09-07T03:47:50;6.70;;;5.20;;
67049;SDS011;53955;52.442;13.284;2023-09-07T03:50:16;8.75;;;5.32;;
67049;SDS011;53955;52.442;13.284;2023-09-07T03:52:43;7.00;;;5.60;;
67049;SDS011;53955;52.442;13.284;2023-09-07T03:55:10;9.93;;;5.10;;
67049;SDS011;53955;52.442;13.284;2023-09-07T03:57:37;7.80;;;5.60;;
67049;SDS011;53955;52.442;13.284;2023-09-07T04:00:04;8.43;;;5.70;;
67049;SDS011;53955;52.442;13.284;2023-09-07T04:02:33;9.15;;;6.57;;
67049;SDS011;53955;52.442;13.284;2023-09-07T04:05:00;10.88;;;6.18;;
67049;SDS011;53955;52.442;13.284;2023-09-07T04:07:29;10.88;;;5.82;;
67049;SDS011;53955;52.442;13.284;2023-09-07T04:09:56;8.68;;;5.38;;
67049;SDS011;53955;52.442;13.284;2023-09-07T04:12:23;8.27;;;5.50;;
67049;SDS011;53955;52.442;13.284;2023-09-07T04:14:52;8.68;;;5.65;;
67049;SDS011;53955;52.442;13.284;2023-09-07T04:17:18;8.23;;;5.60;;
67049;SDS011;53955;52.442;13.284;2023-09-07T04:19:45;8.27;;;5.68;;
67049;SDS011;53955;52.442;13.284;2023-09-07T04:22:11;7.03;;;5.40;;
67049;SDS011;53955;52.442;13.284;2023-09-07T04:24:38;10.15;;;6.20;;
67049;SDS011;53955;52.442;13.284;2023-09-07T04:27:04;6.45;;;4.90;;
67049;SDS011;53955;52.442;13.284;2023-09-07T04:29:31;8.50;;;5.25;;
67049;SDS011;53955;52.442;13.284;2023-09-07T04:31:59;8.85;;;5.95;;
67049;SDS011;53955;52.442;13.284;2023-09-07T04:34:25;6.68;;;5.25;;
67049;SDS011;53955;52.442;13.284;2023-09-07T04:36:52;12.05;;;5.78;;
67049;SDS011;53955;52.442;13.284;2023-09-07T04:39:18;10.05;;;5.35;;
67049;SDS011;53955;52.442;13.284;2023-09-07T04:41:45;7.95;;;5.60;;
67049;SDS011;53955;52.442;13.284;2023-09-07T04:44:12;10.65;;;5.93;;
67049;SDS011;53955;52.442;13.284;2023-09-07T04:46:38;8.98;;;5.72;;
67049;SDS011;53955;52.442;13.284;2023-09-07T04:49:06;7.35;;;5.10;;
67049;SDS011;53955;52.442;13.284;2023-09-07T04:51:33;9.43;;;5.63;;
67049;SDS011;53955;52.442;13.284;2023-09-07T04:54:00;9.07;;;6.57;;
67049;SDS011;53955;52.442;13.284;2023-09-07T04:56:26;8.43;;;5.80;;
67049;SDS011;53955;52.442;13.284;2023-09-07T04:58:54;7.65;;;5.47;;
67049;SDS011;53955;52.442;13.284;2023-09-07T05:01:20;8.13;;;5.57;;
67049;SDS011;53955;52.442;13.284;2023-09-07T05:03:47;11.23;;;5.78;;
67049;SDS011;53955;52.442;13.284;2023-09-07T05:06:16;9.38;;;5.72;;
67049;SDS011;53955;52.442;13.284;2023-09-07T05:08:43;9.30;;;5.50;;
67049;SDS011;53955;52.442;13.284;2023-09-07T05:11:09;7.45;;;5.65;;
67049;SDS011;53955;52.442;13.284;2023-09-07T05:13:36;9.07;;;6.63;;
67049;SDS011;53955;52.442;13.284;2023-09-07T05:16:02;10.63;;;6.03;;
67049;SDS011;53955;52.442;13.284;2023-09-07T05:18:29;9.98;;;5.30;;
67049;SDS011;53955;52.442;13.284;2023-09-07T05:20:56;8.35;;;5.90;;
67049;SDS011;53955;52.442;13.284;2023-09-07T05:23:24;8.18;;;5.78;;
67049;SDS011;53955;52.442;13.284;2023-09-07T05:25:52;9.98;;;5.75;;
67049;SDS011;53955;52.442;13.284;2023-09-07T05:28:19;9.63;;;5.70;;
67049;SDS011;53955;52.442;13.284;2023-09-07T05:30:47;10.77;;;6.45;;
67049;SDS011;53955;52.442;13.284;2023-09-07T05:33:14;8.02;;;5.72;;
67049;SDS011;53955;52.442;13.284;2023-09-07T05:35:42;7.38;;;5.25;;
67049;SDS011;53955;52.442;13.284;2023-09-07T05:38:10;10.05;;;5.78;;
67049;SDS011;53955;52.442;13.284;2023-09-07T05:40:39;7.95;;;5.40;;
67049;SDS011;53955;52.442;13.284;2023-09-07T05:43:06;8.10;;;4.80;;
67049;SDS011;53955;52.442;13.284;2023-09-07T05:45:34;9.82;;;4.45;;
67049;SDS011;53955;52.442;13.284;2023-09-07T05:48:02;8.63;;;4.65;;
67049;SDS011;53955;52.442;13.284;2023-09-07T05:50:29;6.75;;;4.75;;
67049;SDS011;53955;52.442;13.284;2023-09-07T05:52:56;8.45;;;4.13;;
67049;SDS011;53955;52.442;13.284;2023-09-07T05:55:22;7.50;;;4.07;;
67049;SDS011;53955;52.442;13.284;2023-09-07T05:57:51;7.30;;;4.10;;
67049;SDS011;53955;52.442;13.284;2023-09-07T06:00:19;7.40;;;4.38;;
67049;SDS011;53955;52.442;13.284;2023-09-07T06:02:46;8.45;;;4.38;;
67049;SDS011;53955;52.442;13.284;2023-09-07T06:05:13;7.95;;;4.13;;
67049;SDS011;53955;52.442;13.284;2023-09-07T06:07:40;5.83;;;3.73;;
67049;SDS011;53955;52.442;13.284;2023-09-07T06:10:06;7.47;;;4.45;;
67049;SDS011;53955;52.442;13.284;2023-09-07T06:12:33;6.97;;;4.45;;
67049;SDS011;53955;52.442;13.284;2023-09-07T06:15:02;5.90;;;3.90;;
67049;SDS011;53955;52.442;13.284;2023-09-07T06:19:56;6.60;;;3.80;;
67049;SDS011;53955;52.442;13.284;2023-09-07T06:22:23;6.63;;;3.88;;
67049;SDS011;53955;52.442;13.284;2023-09-07T06:24:49;6.00;;;4.00;;
67049;SDS011;53955;52.442;13.284;2023-09-07T06:27:16;9.43;;;3.92;;
67049;SDS011;53955;52.442;13.284;2023-09-07T07:03:57;6.45;;;3.45;;
67049;SDS011;53955;52.442;13.284;2023-09-07T07:06:26;5.40;;;3.70;;
67049;SDS011;53955;52.442;13.284;2023-09-07T07:08:52;8.68;;;4.20;;
67049;SDS011;53955;52.442;13.284;2023-09-07T07:11:19;6.88;;;4.22;;
67049;SDS011;53955;52.442;13.284;2023-09-07T07:18:38;7.22;;;4.45;;
67049;SDS011;53955;52.442;13.284;2023-09-07T07:21:05;7.67;;;4.37;;
67049;SDS011;53955;52.442;13.284;2023-09-07T07:25:59;7.13;;;4.25;;
67049;SDS011;53955;52.442;13.284;2023-09-07T07:28:26;7.88;;;4.35;;
67049;SDS011;53955;52.442;13.284;2023-09-07T07:30:53;7.95;;;4.13;;
67049;SDS011;53955;52.442;13.284;2023-09-07T07:33:19;7.28;;;4.53;;
67049;SDS011;53955;52.442;13.284;2023-09-07T07:35:47;7.15;;;4.20;;
67049;SDS011;53955;52.442;13.284;2023-09-07T07:38:14;6.30;;;4.15;;
67049;SDS011;53955;52.442;13.284;2023-09-07T07:40:42;8.88;;;5.03;;
67049;SDS011;53955;52.442;13.284;2023-09-07T07:43:10;9.13;;;4.28;;
67049;SDS011;53955;52.442;13.284;2023-09-07T07:45:38;11.32;;;4.75;;
67049;SDS011;53955;52.442;13.284;2023-09-07T07:48:04;5.90;;;3.92;;
67049;SDS011;53955;52.442;13.284;2023-09-07T07:50:35;9.10;;;4.70;;
67049;SDS011;53955;52.442;13.284;2023-09-07T07:53:03;6.55;;;4.20;;
67049;SDS011;53955;52.442;13.284;2023-09-07T07:55:29;9.57;;;3.60;;
67049;SDS011;53955;52.442;13.284;2023-09-07T07:57:57;8.88;;;4.05;;
67049;SDS011;53955;52.442;13.284;2023-09-07T08:00:24;6.25;;;3.92;;
67049;SDS011;53955;52.442;13.284;2023-09-07T08:02:50;7.03;;;4.03;;
67049;SDS011;53955;52.442;13.284;2023-09-07T08:05:17;5.57;;;3.75;;
67049;SDS011;53955;52.442;13.284;2023-09-07T08:07:43;7.00;;;4.30;;
67049;SDS011;53955;52.442;13.284;2023-09-07T08:10:10;10.50;;;4.65;;
67049;SDS011;53955;52.442;13.284;2023-09-07T08:12:36;6.50;;;4.00;;
67049;SDS011;53955;52.442;13.284;2023-09-07T08:15:05;5.15;;;3.70;;
67049;SDS011;53955;52.442;13.284;2023-09-07T08:17:32;6.10;;;3.58;;
67049;SDS011;53955;52.442;13.284;2023-09-07T08:19:58;5.05;;;3.22;;
67049;SDS011;53955;52.442;13.284;2023-09-07T08:22:25;6.10;;;3.80;;
67049;SDS011;53955;52.442;13.284;2023-09-07T08:24:52;6.00;;;3.85;;
67049;SDS011;53955;52.442;13.284;2023-09-07T08:27:19;5.80;;;3.53;;
67049;SDS011;53955;52.442;13.284;2023-09-07T08:29:46;5.28;;;3.47;;
67049;SDS011;53955;52.442;13.284;2023-09-07T08:32:17;6.75;;;3.80;;
67049;SDS011;53955;52.442;13.284;2023-09-07T08:34:44;6.75;;;3.75;;
67049;SDS011;53955;52.442;13.284;2023-09-07T08:37:11;6.00;;;3.42;;
67049;SDS011;53955;52.442;13.284;2023-09-07T08:39:37;5.00;;;3.10;;
67049;SDS011;53955;52.442;13.284;2023-09-07T08:42:04;7.43;;;3.63;;
67049;SDS011;53955;52.442;13.284;2023-09-07T08:44:32;6.30;;;3.63;;
67049;SDS011;53955;52.442;13.284;2023-09-07T08:47:00;7.28;;;3.50;;
67049;SDS011;53955;52.442;13.284;2023-09-07T08:49:30;5.03;;;3.45;;
67049;SDS011;53955;52.442;13.284;2023-09-07T08:51:58;5.97;;;3.50;;
67049;SDS011;53955;52.442;13.284;2023-09-07T08:54:25;5.25;;;3.42;;
67049;SDS011;53955;52.442;13.284;2023-09-07T08:56:53;5.53;;;3.50;;
67049;SDS011;53955;52.442;13.284;2023-09-07T08:59:22;8.98;;;3.45;;
67049;SDS011;53955;52.442;13.284;2023-09-07T09:01:48;7.07;;;3.78;;
67049;SDS011;53955;52.442;13.284;2023-09-07T09:04:15;7.50;;;3.80;;
67049;SDS011;53955;52.442;13.284;2023-09-07T09:06:43;6.55;;;3.90;;
67049;SDS011;53955;52.442;13.284;2023-09-07T09:09:10;6.22;;;3.97;;
67049;SDS011;53955;52.442;13.284;2023-09-07T09:11:38;5.25;;;3.65;;
67049;SDS011;53955;52.442;13.284;2023-09-07T09:14:05;5.65;;;3.40;;
67049;SDS011;53955;52.442;13.284;2023-09-07T09:16:32;4.70;;;3.20;;
67049;SDS011;53955;52.442;13.284;2023-09-07T09:18:59;5.10;;;3.35;;
67049;SDS011;53955;52.442;13.284;2023-09-07T09:21:26;5.40;;;3.25;;
67049;SDS011;53955;52.442;13.284;2023-09-07T09:23:54;5.97;;;3.40;;
67049;SDS011;53955;52.442;13.284;2023-09-07T09:26:23;5.45;;;3.53;;
67049;SDS011;53955;52.442;13.284;2023-09-07T09:28:49;6.53;;;3.83;;
67049;SDS011;53955;52.442;13.284;2023-09-07T09:31:17;6.63;;;3.63;;
67049;SDS011;53955;52.442;13.284;2023-09-07T09:33:47;7.30;;;3.30;;
67049;SDS011;53955;52.442;13.284;2023-09-07T09:36:16;5.38;;;3.40;;
67049;SDS011;53955;52.442;13.284;2023-09-07T09:38:47;8.98;;;3.58;;
67049;SDS011;53955;52.442;13.284;2023-09-07T09:41:16;8.18;;;3.80;;
67049;SDS011;53955;52.442;13.284;2023-09-07T09:43:43;5.95;;;3.45;;
67049;SDS011;53955;52.442;13.284;2023-09-07T09:46:14;5.93;;;3.75;;
67049;SDS011;53955;52.442;13.284;2023-09-07T09:48:41;4.80;;;3.30;;
67049;SDS011;53955;52.442;13.284;2023-09-07T09:51:08;5.60;;;3.53;;
67049;SDS011;53955;52.442;13.284;2023-09-07T09:53:36;6.10;;;3.35;;
67049;SDS011;53955;52.442;13.284;2023-09-07T09:56:03;6.95;;;4.05;;
67049;SDS011;53955;52.442;13.284;2023-09-07T09:58:31;5.60;;;3.70;;
67049;SDS011;53955;52.442;13.284;2023-09-07T10:00:58;4.72;;;3.20;;
67049;SDS011;53955;52.442;13.284;2023-09-07T10:03:31;6.03;;;4.25;;
67049;SDS011;53955;52.442;13.284;2023-09-07T10:06:07;6.40;;;3.65;;
67049;SDS011;53955;52.442;13.284;2023-09-07T10:08:34;6.18;;;3.58;;
67049;SDS011;53955;52.442;13.284;2023-09-07T10:11:01;5.30;;;3.55;;
67049;SDS011;53955;52.442;13.284;2023-09-07T10:13:35;6.40;;;3.67;;
67049;SDS011;53955;52.442;13.284;2023-09-07T10:16:02;5.80;;;3.60;;
67049;SDS011;53955;52.442;13.284;2023-09-07T10:18:32;5.00;;;3.75;;
67049;SDS011;53955;52.442;13.284;2023-09-07T10:21:00;6.60;;;3.78;;
67049;SDS011;53955;52.442;13.284;2023-09-07T10:23:37;5.30;;;3.88;;
67049;SDS011;53955;52.442;13.284;2023-09-07T10:26:05;9.88;;;3.42;;
67049;SDS011;53955;52.442;13.284;2023-09-07T10:28:37;5.78;;;3.67;;
67049;SDS011;53955;52.442;13.284;2023-09-07T10:31:05;5.10;;;3.40;;
67049;SDS011;53955;52.442;13.284;2023-09-07T10:33:33;6.55;;;3.72;;
67049;SDS011;53955;52.442;13.284;2023-09-07T10:36:00;6.43;;;3.65;;
67049;SDS011;53955;52.442;13.284;2023-09-07T10:38:28;6.50;;;3.78;;
67049;SDS011;53955;52.442;13.284;2023-09-07T10:40:57;5.32;;;3.42;;
67049;SDS011;53955;52.442;13.284;2023-09-07T10:43:25;5.55;;;3.25;;
67049;SDS011;53955;52.442;13.284;2023-09-07T10:45:54;6.30;;;3.67;;
67049;SDS011;53955;52.442;13.284;2023-09-07T10:48:22;7.15;;;3.58;;
67049;SDS011;53955;52.442;13.284;2023-09-07T10:50:49;5.05;;;3.50;;
67049;SDS011;53955;52.442;13.284;2023-09-07T10:53:23;5.95;;;3.28;;
67049;SDS011;53955;52.442;13.284;2023-09-07T10:55:51;5.18;;;3.45;;
67049;SDS011;53955;52.442;13.284;2023-09-07T10:58:23;4.30;;;3.08;;
67049;SDS011;53955;52.442;13.284;2023-09-07T11:00:53;5.40;;;2.90;;
67049;SDS011;53955;52.442;13.284;2023-09-07T11:03:20;7.18;;;2.85;;
67049;SDS011;53955;52.442;13.284;2023-09-07T11:05:46;4.80;;;3.17;;
67049;SDS011;53955;52.442;13.284;2023-09-07T11:08:14;5.70;;;2.92;;
67049;SDS011;53955;52.442;13.284;2023-09-07T11:10:40;4.80;;;3.28;;
67049;SDS011;53955;52.442;13.284;2023-09-07T11:13:07;4.95;;;3.17;;
67049;SDS011;53955;52.442;13.284;2023-09-07T11:15:35;4.95;;;2.88;;
67049;SDS011;53955;52.442;13.284;2023-09-07T11:18:05;3.67;;;2.53;;
67049;SDS011;53955;52.442;13.284;2023-09-07T11:20:33;3.83;;;2.40;;
67049;SDS011;53955;52.442;13.284;2023-09-07T11:23:00;5.00;;;2.80;;
67049;SDS011;53955;52.442;13.284;2023-09-07T11:25:26;3.70;;;2.47;;
67049;SDS011;53955;52.442;13.284;2023-09-07T11:27:53;4.82;;;2.65;;
67049;SDS011;53955;52.442;13.284;2023-09-07T11:30:22;4.22;;;2.90;;
67049;SDS011;53955;52.442;13.284;2023-09-07T11:32:49;6.30;;;2.83;;
67049;SDS011;53955;52.442;13.284;2023-09-07T11:35:17;5.53;;;2.42;;
67049;SDS011;53955;52.442;13.284;2023-09-07T11:37:51;5.10;;;2.85;;
67049;SDS011;53955;52.442;13.284;2023-09-07T11:40:18;6.35;;;2.58;;
67049;SDS011;53955;52.442;13.284;2023-09-07T11:42:44;3.97;;;2.33;;
67049;SDS011;53955;52.442;13.284;2023-09-07T11:45:11;4.22;;;2.50;;
67049;SDS011;53955;52.442;13.284;2023-09-07T11:47:38;3.95;;;2.90;;
67049;SDS011;53955;52.442;13.284;2023-09-07T11:50:05;4.13;;;2.83;;
67049;SDS011;53955;52.442;13.284;2023-09-07T11:52:34;4.85;;;3.03;;
67049;SDS011;53955;52.442;13.284;2023-09-07T11:55:00;5.38;;;2.90;;
67049;SDS011;53955;52.442;13.284;2023-09-07T11:57:28;4.88;;;2.83;;
67049;SDS011;53955;52.442;13.284;2023-09-07T11:59:55;4.82;;;2.90;;
67049;SDS011;53955;52.442;13.284;2023-09-07T12:02:21;4.60;;;2.60;;
67049;SDS011;53955;52.442;13.284;2023-09-07T12:04:48;4.70;;;2.85;;
67049;SDS011;53955;52.442;13.284;2023-09-07T12:07:14;4.38;;;2.67;;
67049;SDS011;53955;52.442;13.284;2023-09-07T12:09:43;5.15;;;2.90;;
67049;SDS011;53955;52.442;13.284;2023-09-07T12:12:09;3.53;;;2.40;;
67049;SDS011;53955;52.442;13.284;2023-09-07T12:14:36;5.40;;;3.17;;
67049;SDS011;53955;52.442;13.284;2023-09-07T12:17:03;5.97;;;2.92;;
67049;SDS011;53955;52.442;13.284;2023-09-07T12:19:30;6.55;;;2.63;;
67049;SDS011;53955;52.442;13.284;2023-09-07T12:21:56;5.65;;;3.15;;
67049;SDS011;53955;52.442;13.284;2023-09-07T12:24:23;5.65;;;2.80;;
67049;SDS011;53955;52.442;13.284;2023-09-07T12:26:50;5.20;;;2.72;;
67049;SDS011;53955;52.442;13.284;2023-09-07T12:29:17;4.53;;;2.67;;
67049;SDS011;53955;52.442;13.284;2023-09-07T12:31:45;4.38;;;2.45;;
67049;SDS011;53955;52.442;13.284;2023-09-07T12:34:11;4.90;;;2.95;;
67049;SDS011;53955;52.442;13.284;2023-09-07T12:36:38;4.20;;;2.70;;
67049;SDS011;53955;52.442;13.284;2023-09-07T12:39:05;4.47;;;2.53;;
67049;SDS011;53955;52.442;13.284;2023-09-07T12:41:32;3.38;;;2.40;;
67049;SDS011;53955;52.442;13.284;2023-09-07T12:44:00;4.57;;;2.72;;
67049;SDS011;53955;52.442;13.284;2023-09-07T12:46:27;4.65;;;2.40;;
67049;SDS011;53955;52.442;13.284;2023-09-07T12:48:54;4.45;;;2.63;;
67049;SDS011;53955;52.442;13.284;2023-09-07T12:51:20;4.38;;;2.53;;
67049;SDS011;53955;52.442;13.284;2023-09-07T12:53:47;4.60;;;2.72;;
67049;SDS011;53955;52.442;13.284;2023-09-07T12:56:13;5.18;;;2.90;;
67049;SDS011;53955;52.442;13.284;2023-09-07T12:58:40;4.70;;;2.80;;
67049;SDS011;53955;52.442;13.284;2023-09-07T13:01:08;3.90;;;2.40;;
67049;SDS011;53955;52.442;13.284;2023-09-07T13:03:36;7.57;;;2.08;;
67049;SDS011;53955;52.442;13.284;2023-09-07T13:06:03;6.95;;;2.88;;
67049;SDS011;53955;52.442;13.284;2023-09-07T13:08:30;3.90;;;2.40;;
67049;SDS011;53955;52.442;13.284;2023-09-07T13:10:57;4.43;;;2.80;;
67049;SDS011;53955;52.442;13.284;2023-09-07T13:13:23;4.28;;;2.70;;
67049;SDS011;53955;52.442;13.284;2023-09-07T13:15:53;4.55;;;2.90;;
67049;SDS011;53955;52.442;13.284;2023-09-07T13:18:21;5.43;;;2.95;;
67049;SDS011;53955;52.442;13.284;2023-09-07T13:20:48;4.43;;;2.60;;
67049;SDS011;53955;52.442;13.284;2023-09-07T13:23:16;5.82;;;3.10;;
67049;SDS011;53955;52.442;13.284;2023-09-07T13:25:43;5.10;;;3.00;;
67049;SDS011;53955;52.442;13.284;2023-09-07T13:28:10;5.38;;;3.42;;
67049;SDS011;53955;52.442;13.284;2023-09-07T13:30:36;5.13;;;3.20;;
67049;SDS011;53955;52.442;13.284;2023-09-07T13:33:03;5.05;;;3.30;;
67049;SDS011;53955;52.442;13.284;2023-09-07T13:35:31;4.65;;;2.95;;
67049;SDS011;53955;52.442;13.284;2023-09-07T13:37:58;5.55;;;3.10;;
67049;SDS011;53955;52.442;13.284;2023-09-07T13:40:24;5.57;;;3.30;;
67049;SDS011;53955;52.442;13.284;2023-09-07T13:42:54;5.60;;;2.83;;
67049;SDS011;53955;52.442;13.284;2023-09-07T13:45:21;4.72;;;3.10;;
67049;SDS011;53955;52.442;13.284;2023-09-07T13:47:48;4.00;;;2.58;;
67049;SDS011;53955;52.442;13.284;2023-09-07T13:50:14;4.65;;;2.90;;
67049;SDS011;53955;52.442;13.284;2023-09-07T13:52:42;5.68;;;2.72;;
67049;SDS011;53955;52.442;13.284;2023-09-07T13:55:09;6.35;;;2.83;;
67049;SDS011;53955;52.442;13.284;2023-09-07T13:57:35;4.80;;;2.65;;
67049;SDS011;53955;52.442;13.284;2023-09-07T14:00:02;5.25;;;2.88;;
67049;SDS011;53955;52.442;13.284;2023-09-07T14:02:30;4.97;;;2.65;;
67049;SDS011;53955;52.442;13.284;2023-09-07T14:04:57;3.92;;;2.38;;
67049;SDS011;53955;52.442;13.284;2023-09-07T14:07:24;3.03;;;2.10;;
67049;SDS011;53955;52.442;13.284;2023-09-07T14:09:53;4.75;;;2.28;;
67049;SDS011;53955;52.442;13.284;2023-09-07T14:12:20;4.80;;;2.60;;
67049;SDS011;53955;52.442;13.284;2023-09-07T14:14:47;4.13;;;2.80;;
67049;SDS011;53955;52.442;13.284;2023-09-07T14:17:13;5.03;;;2.58;;
67049;SDS011;53955;52.442;13.284;2023-09-07T14:19:40;5.38;;;2.92;;
67049;SDS011;53955;52.442;13.284;2023-09-07T14:22:07;5.80;;;2.90;;
67049;SDS011;53955;52.442;13.284;2023-09-07T14:24:33;4.88;;;3.22;;
67049;SDS011;53955;52.442;13.284;2023-09-07T14:27:01;4.80;;;2.90;;
67049;SDS011;53955;52.442;13.284;2023-09-07T14:29:28;4.38;;;2.72;;
67049;SDS011;53955;52.442;13.284;2023-09-07T14:31:54;7.25;;;2.83;;
67049;SDS011;53955;52.442;13.284;2023-09-07T14:34:21;5.07;;;3.08;;
67049;SDS011;53955;52.442;13.284;2023-09-07T14:36:48;4.18;;;2.92;;
67049;SDS011;53955;52.442;13.284;2023-09-07T14:39:14;4.70;;;3.08;;
67049;SDS011;53955;52.442;13.284;2023-09-07T14:41:43;4.78;;;2.83;;
67049;SDS011;53955;52.442;13.284;2023-09-07T14:44:10;5.30;;;3.05;;
67049;SDS011;53955;52.442;13.284;2023-09-07T14:46:37;6.18;;;3.53;;
67049;SDS011;53955;52.442;13.284;2023-09-07T14:49:04;4.40;;;3.22;;
67049;SDS011;53955;52.442;13.284;2023-09-07T14:51:30;6.65;;;3.25;;
67049;SDS011;53955;52.442;13.284;2023-09-07T14:53:57;5.15;;;3.20;;
67049;SDS011;53955;52.442;13.284;2023-09-07T14:56:24;4.22;;;2.95;;
67049;SDS011;53955;52.442;13.284;2023-09-07T14:58:51;4.28;;;2.70;;
67049;SDS011;53955;52.442;13.284;2023-09-07T15:01:19;4.35;;;2.70;;
67049;SDS011;53955;52.442;13.284;2023-09-07T15:03:46;5.60;;;2.85;;
67049;SDS011;53955;52.442;13.284;2023-09-07T15:06:12;3.47;;;2.20;;
67049;SDS011;53955;52.442;13.284;2023-09-07T15:08:40;4.45;;;2.60;;
67049;SDS011;53955;52.442;13.284;2023-09-07T15:11:07;4.45;;;2.85;;
67049;SDS011;53955;52.442;13.284;2023-09-07T15:13:34;4.82;;;2.83;;
67049;SDS011;53955;52.442;13.284;2023-09-07T15:16:00;4.05;;;2.45;;
67049;SDS011;53955;52.442;13.284;2023-09-07T15:18:28;5.25;;;2.58;;
67049;SDS011;53955;52.442;13.284;2023-09-07T15:20:55;5.88;;;3.13;;
67049;SDS011;53955;52.442;13.284;2023-09-07T15:23:21;6.70;;;2.70;;
67049;SDS011;53955;52.442;13.284;2023-09-07T15:25:48;6.25;;;2.90;;
67049;SDS011;53955;52.442;13.284;2023-09-07T15:28:17;5.78;;;3.10;;
67049;SDS011;53955;52.442;13.284;2023-09-07T15:30:43;4.80;;;3.00;;
67049;SDS011;53955;52.442;13.284;2023-09-07T15:33:10;5.20;;;2.90;;
67049;SDS011;53955;52.442;13.284;2023-09-07T15:35:38;8.25;;;3.08;;
67049;SDS011;53955;52.442;13.284;2023-09-07T15:38:04;5.18;;;3.05;;
67049;SDS011;53955;52.442;13.284;2023-09-07T15:40:31;4.57;;;3.10;;
67049;SDS011;53955;52.442;13.284;2023-09-07T15:42:57;4.30;;;2.53;;
67049;SDS011;53955;52.442;13.284;2023-09-07T15:45:24;4.50;;;2.90;;
67049;SDS011;53955;52.442;13.284;2023-09-07T15:47:51;4.57;;;2.80;;
67049;SDS011;53955;52.442;13.284;2023-09-07T15:50:17;5.05;;;3.17;;
67049;SDS011;53955;52.442;13.284;2023-09-07T15:52:46;4.97;;;3.00;;
67049;SDS011;53955;52.442;13.284;2023-09-07T15:55:13;4.03;;;2.70;;